sensor_id;sensor_type;location;lat;lon;timestamp;temperature;humidity
12289;DHT22;6207;49.308;7.336;2022-12-20T00:01:24;5.70;1.00
12289;DHT22;6207;49.308;7.336;2022-12-20T00:03:53;5.70;1.00
12289;DHT22;6207;49.308;7.336;2022-12-20T00:06:21;5.60;1.00
12289;DHT22;6207;49.308;7.336;2022-12-20T00:08:59;5.70;1.60
12289;DHT22;6207;49.308;7.336;2022-12-20T00:11:27;5.70;1.00
12289;DHT22;6207;49.308;7.336;2022-12-20T00:13:55;5.60;1.00
12289;DHT22;6207;49.308;7.336;2022-12-20T00:16:24;5.40;1.00
12289;DHT22;6207;49.308;7.336;2022-12-20T00:18:57;5.60;24.10
12289;DHT22;6207;49.308;7.336;2022-12-20T00:21:25;6.30;99.90
12289;DHT22;6207;49.308;7.336;2022-12-20T00:23:53;6.10;1.00
12289;DHT22;6207;49.308;7.336;2022-12-20T00:26:23;5.80;1.00
12289;DHT22;6207;49.308;7.336;2022-12-20T00:28:51;5.60;1.00
12289;DHT22;6207;49.308;7.336;2022-12-20T00:31:20;5.70;1.00
12289;DHT22;6207;49.308;7.336;2022-12-20T00:33:49;6.30;1.00
12289;DHT22;6207;49.308;7.336;2022-12-20T00:36:16;6.50;1.00
12289;DHT22;6207;49.308;7.336;2022-12-20T00:38:45;6.80;1.00
12289;DHT22;6207;49.308;7.336;2022-12-20T00:41:16;7.90;1.00
12289;DHT22;6207;49.308;7.336;2022-12-20T00:43:43;8.00;99.90
12289;DHT22;6207;49.308;7.336;2022-12-20T00:46:11;7.60;99.90
12289;DHT22;6207;49.308;7.336;2022-12-20T00:48:39;7.50;1.00
12289;DHT22;6207;49.308;7.336;2022-12-20T00:51:18;6.70;99.90
12289;DHT22;6207;49.308;7.336;2022-12-20T00:53:46;6.20;1.00
12289;DHT22;6207;49.308;7.336;2022-12-20T00:56:13;6.10;1.00
12289;DHT22;6207;49.308;7.336;2022-12-20T00:58:42;5.80;1.00
12289;DHT22;6207;49.308;7.336;2022-12-20T01:01:22;5.80;1.00
12289;DHT22;6207;49.308;7.336;2022-12-20T01:03:50;6.20;1.00
12289;DHT22;6207;49.308;7.336;2022-12-20T01:06:19;6.30;99.90
12289;DHT22;6207;49.308;7.336;2022-12-20T01:08:46;5.30;99.90
12289;DHT22;6207;49.308;7.336;2022-12-20T01:11:19;5.60;1.00
12289;DHT22;6207;49.308;7.336;2022-12-20T01:13:48;6.10;1.00
12289;DHT22;6207;49.308;7.336;2022-12-20T01:16:19;7.20;1.00
12289;DHT22;6207;49.308;7.336;2022-12-20T01:18:47;8.20;1.00
12289;DHT22;6207;49.308;7.336;2022-12-20T01:21:15;8.50;99.90
12289;DHT22;6207;49.308;7.336;2022-12-20T01:23:42;8.90;1.00
12289;DHT22;6207;49.308;7.336;2022-12-20T01:26:15;9.00;1.00
12289;DHT22;6207;49.308;7.336;2022-12-20T01:28:44;9.10;1.00
12289;DHT22;6207;49.308;7.336;2022-12-20T01:31:15;8.90;99.90
12289;DHT22;6207;49.308;7.336;2022-12-20T01:33:44;8.20;99.90
12289;DHT22;6207;49.308;7.336;2022-12-20T01:36:15;7.50;99.90
12289;DHT22;6207;49.308;7.336;2022-12-20T01:38:42;7.10;99.90
12289;DHT22;6207;49.308;7.336;2022-12-20T01:41:14;6.70;99.90
12289;DHT22;6207;49.308;7.336;2022-12-20T01:43:57;6.60;99.90
12289;DHT22;6207;49.308;7.336;2022-12-20T01:46:26;6.50;99.90
12289;DHT22;6207;49.308;7.336;2022-12-20T01:51:28;6.20;99.90
12289;DHT22;6207;49.308;7.336;2022-12-20T01:54:16;6.10;99.90
12289;DHT22;6207;49.308;7.336;2022-12-20T01:56:49;5.90;99.90
12289;DHT22;6207;49.308;7.336;2022-12-20T01:59:18;5.60;99.90
12289;DHT22;6207;49.308;7.336;2022-12-20T02:01:45;5.30;1.00
12289;DHT22;6207;49.308;7.336;2022-12-20T02:04:12;5.20;1.00
12289;DHT22;6207;49.308;7.336;2022-12-20T02:06:39;5.20;1.00
12289;DHT22;6207;49.308;7.336;2022-12-20T02:09:06;5.40;1.00
12289;DHT22;6207;49.308;7.336;2022-12-20T02:16:59;4.90;1.00
12289;DHT22;6207;49.308;7.336;2022-12-20T02:22:37;4.70;1.00
12289;DHT22;6207;49.308;7.336;2022-12-20T02:30:56;4.90;1.00
12289;DHT22;6207;49.308;7.336;2022-12-20T02:33:26;5.00;12.30
12289;DHT22;6207;49.308;7.336;2022-12-20T02:35:54;5.10;79.50
12289;DHT22;6207;49.308;7.336;2022-12-20T02:38:30;5.00;8.70
12289;DHT22;6207;49.308;7.336;2022-12-20T02:41:04;4.80;1.00
12289;DHT22;6207;49.308;7.336;2022-12-20T02:43:33;4.90;1.00
12289;DHT22;6207;49.308;7.336;2022-12-20T02:46:22;5.10;25.90
12289;DHT22;6207;49.308;7.336;2022-12-20T02:48:51;4.90;1.00
12289;DHT22;6207;49.308;7.336;2022-12-20T02:51:20;4.80;1.00
12289;DHT22;6207;49.308;7.336;2022-12-20T02:53:49;4.90;1.00
12289;DHT22;6207;49.308;7.336;2022-12-20T02:56:26;4.90;1.00
12289;DHT22;6207;49.308;7.336;2022-12-20T02:59:16;4.90;1.00
12289;DHT22;6207;49.308;7.336;2022-12-20T03:01:52;4.90;1.00
12289;DHT22;6207;49.308;7.336;2022-12-20T03:04:28;5.10;99.90
12289;DHT22;6207;49.308;7.336;2022-12-20T03:07:00;5.40;13.10
12289;DHT22;6207;49.308;7.336;2022-12-20T03:09:28;5.20;1.00
12289;DHT22;6207;49.308;7.336;2022-12-20T03:11:55;5.00;1.00
12289;DHT22;6207;49.308;7.336;2022-12-20T03:14:22;4.80;1.00
12289;DHT22;6207;49.308;7.336;2022-12-20T03:16:50;4.80;1.00
12289;DHT22;6207;49.308;7.336;2022-12-20T03:19:17;4.70;1.00
12289;DHT22;6207;49.308;7.336;2022-12-20T03:21:44;4.70;1.00
12289;DHT22;6207;49.308;7.336;2022-12-20T03:24:10;4.60;1.00
12289;DHT22;6207;49.308;7.336;2022-12-20T03:26:39;4.70;75.90
12289;DHT22;6207;49.308;7.336;2022-12-20T03:29:06;4.60;96.80
12289;DHT22;6207;49.308;7.336;2022-12-20T03:31:34;4.90;99.90
12289;DHT22;6207;49.308;7.336;2022-12-20T03:34:01;6.40;1.00
12289;DHT22;6207;49.308;7.336;2022-12-20T03:36:28;7.60;99.90
12289;DHT22;6207;49.308;7.336;2022-12-20T03:38:56;8.00;99.90
12289;DHT22;6207;49.308;7.336;2022-12-20T03:41:23;8.10;99.90
12289;DHT22;6207;49.308;7.336;2022-12-20T03:43:51;8.10;99.90
12289;DHT22;6207;49.308;7.336;2022-12-20T03:46:18;8.00;99.90
12289;DHT22;6207;49.308;7.336;2022-12-20T03:48:45;8.30;99.90
12289;DHT22;6207;49.308;7.336;2022-12-20T03:51:11;8.40;99.90
12289;DHT22;6207;49.308;7.336;2022-12-20T03:53:38;8.10;99.90
12289;DHT22;6207;49.308;7.336;2022-12-20T03:56:05;8.00;99.90
12289;DHT22;6207;49.308;7.336;2022-12-20T03:58:32;7.80;99.90
12289;DHT22;6207;49.308;7.336;2022-12-20T04:00:58;8.00;99.90
12289;DHT22;6207;49.308;7.336;2022-12-20T04:03:25;7.90;99.90
12289;DHT22;6207;49.308;7.336;2022-12-20T04:05:52;7.40;99.90
12289;DHT22;6207;49.308;7.336;2022-12-20T04:08:19;6.80;99.90
12289;DHT22;6207;49.308;7.336;2022-12-20T04:10:45;6.30;1.00
12289;DHT22;6207;49.308;7.336;2022-12-20T04:13:31;5.90;1.00
12289;DHT22;6207;49.308;7.336;2022-12-20T04:15:57;5.70;99.90
12289;DHT22;6207;49.308;7.336;2022-12-20T04:18:26;5.40;1.00
12289;DHT22;6207;49.308;7.336;2022-12-20T04:20:53;5.30;1.00
12289;DHT22;6207;49.308;7.336;2022-12-20T04:23:20;5.30;1.00
12289;DHT22;6207;49.308;7.336;2022-12-20T04:25:47;5.20;1.00
12289;DHT22;6207;49.308;7.336;2022-12-20T04:28:14;5.10;1.00
12289;DHT22;6207;49.308;7.336;2022-12-20T04:30:40;5.00;1.00
12289;DHT22;6207;49.308;7.336;2022-12-20T04:33:07;5.20;1.00
12289;DHT22;6207;49.308;7.336;2022-12-20T04:35:38;5.20;1.00
12289;DHT22;6207;49.308;7.336;2022-12-20T04:38:05;5.10;1.00
12289;DHT22;6207;49.308;7.336;2022-12-20T04:40:31;5.00;1.00
12289;DHT22;6207;49.308;7.336;2022-12-20T04:42:58;4.90;1.00
12289;DHT22;6207;49.308;7.336;2022-12-20T04:45:25;4.80;1.00
12289;DHT22;6207;49.308;7.336;2022-12-20T04:47:51;4.80;1.00
12289;DHT22;6207;49.308;7.336;2022-12-20T04:50:18;4.90;1.00
12289;DHT22;6207;49.308;7.336;2022-12-20T04:52:45;5.00;1.00
12289;DHT22;6207;49.308;7.336;2022-12-20T04:55:35;5.40;1.00
12289;DHT22;6207;49.308;7.336;2022-12-20T04:58:02;5.50;1.00
12289;DHT22;6207;49.308;7.336;2022-12-20T05:00:33;5.60;1.00
12289;DHT22;6207;49.308;7.336;2022-12-20T05:03:00;6.00;99.90
12289;DHT22;6207;49.308;7.336;2022-12-20T05:05:27;6.30;99.90
12289;DHT22;6207;49.308;7.336;2022-12-20T05:07:55;6.60;99.90
12289;DHT22;6207;49.308;7.336;2022-12-20T05:10:21;6.90;1.00
12289;DHT22;6207;49.308;7.336;2022-12-20T05:12:48;7.40;1.00
12289;DHT22;6207;49.308;7.336;2022-12-20T05:15:15;7.40;1.00
12289;DHT22;6207;49.308;7.336;2022-12-20T05:17:42;7.70;99.90
12289;DHT22;6207;49.308;7.336;2022-12-20T05:20:09;7.80;99.90
12289;DHT22;6207;49.308;7.336;2022-12-20T05:22:36;7.70;99.90
12289;DHT22;6207;49.308;7.336;2022-12-20T05:25:22;7.70;99.90
12289;DHT22;6207;49.308;7.336;2022-12-20T05:28:07;8.20;99.90
12289;DHT22;6207;49.308;7.336;2022-12-20T05:30:34;8.10;99.90
12289;DHT22;6207;49.308;7.336;2022-12-20T05:33:01;8.10;99.90
12289;DHT22;6207;49.308;7.336;2022-12-20T05:35:27;6.80;99.90
12289;DHT22;6207;49.308;7.336;2022-12-20T05:37:54;6.20;1.00
12289;DHT22;6207;49.308;7.336;2022-12-20T05:40:21;5.90;99.90
12289;DHT22;6207;49.308;7.336;2022-12-20T05:42:48;5.80;99.90
12289;DHT22;6207;49.308;7.336;2022-12-20T05:45:15;5.60;99.90
12289;DHT22;6207;49.308;7.336;2022-12-20T05:47:42;5.50;1.00
12289;DHT22;6207;49.308;7.336;2022-12-20T05:50:08;5.40;1.00
12289;DHT22;6207;49.308;7.336;2022-12-20T05:52:44;5.30;1.00
12289;DHT22;6207;49.308;7.336;2022-12-20T05:55:11;5.20;1.00
12289;DHT22;6207;49.308;7.336;2022-12-20T05:57:38;5.10;1.00
12289;DHT22;6207;49.308;7.336;2022-12-20T06:00:05;5.10;1.00
12289;DHT22;6207;49.308;7.336;2022-12-20T06:02:33;5.00;1.00
12289;DHT22;6207;49.308;7.336;2022-12-20T06:05:00;5.40;99.90
12289;DHT22;6207;49.308;7.336;2022-12-20T06:07:29;5.40;99.90
12289;DHT22;6207;49.308;7.336;2022-12-20T06:09:57;5.30;49.20
12289;DHT22;6207;49.308;7.336;2022-12-20T06:12:24;5.30;21.10
12289;DHT22;6207;49.308;7.336;2022-12-20T06:14:51;5.30;23.00
12289;DHT22;6207;49.308;7.336;2022-12-20T06:17:18;5.20;1.60
12289;DHT22;6207;49.308;7.336;2022-12-20T06:19:45;5.20;1.00
12289;DHT22;6207;49.308;7.336;2022-12-20T06:22:12;5.10;1.00
12289;DHT22;6207;49.308;7.336;2022-12-20T06:24:39;5.00;1.00
12289;DHT22;6207;49.308;7.336;2022-12-20T06:27:13;5.20;99.90
12289;DHT22;6207;49.308;7.336;2022-12-20T06:29:40;5.10;98.00
12289;DHT22;6207;49.308;7.336;2022-12-20T06:32:07;5.00;99.90
12289;DHT22;6207;49.308;7.336;2022-12-20T06:34:34;5.00;99.90
12289;DHT22;6207;49.308;7.336;2022-12-20T06:37:01;5.00;99.90
12289;DHT22;6207;49.308;7.336;2022-12-20T06:39:27;5.00;99.90
12289;DHT22;6207;49.308;7.336;2022-12-20T06:41:54;5.20;99.90
12289;DHT22;6207;49.308;7.336;2022-12-20T06:44:21;5.10;99.90
12289;DHT22;6207;49.308;7.336;2022-12-20T06:46:48;5.20;99.90
12289;DHT22;6207;49.308;7.336;2022-12-20T06:49:14;5.10;99.90
12289;DHT22;6207;49.308;7.336;2022-12-20T06:51:41;5.30;99.90
12289;DHT22;6207;49.308;7.336;2022-12-20T06:54:08;5.40;99.90
12289;DHT22;6207;49.308;7.336;2022-12-20T06:56:34;5.40;99.90
12289;DHT22;6207;49.308;7.336;2022-12-20T06:59:07;5.40;99.90
12289;DHT22;6207;49.308;7.336;2022-12-20T07:01:33;5.30;99.90
12289;DHT22;6207;49.308;7.336;2022-12-20T07:04:00;5.50;99.90
12289;DHT22;6207;49.308;7.336;2022-12-20T07:06:28;5.50;99.90
12289;DHT22;6207;49.308;7.336;2022-12-20T07:08:54;5.30;99.90
12289;DHT22;6207;49.308;7.336;2022-12-20T07:11:21;5.40;99.90
12289;DHT22;6207;49.308;7.336;2022-12-20T07:13:48;5.40;99.90
12289;DHT22;6207;49.308;7.336;2022-12-20T07:16:15;5.50;99.90
12289;DHT22;6207;49.308;7.336;2022-12-20T07:18:42;5.60;99.90
12289;DHT22;6207;49.308;7.336;2022-12-20T07:21:09;5.60;99.90
12289;DHT22;6207;49.308;7.336;2022-12-20T07:23:36;5.70;99.90
12289;DHT22;6207;49.308;7.336;2022-12-20T07:26:03;5.30;99.90
12289;DHT22;6207;49.308;7.336;2022-12-20T07:28:30;5.40;99.90
12289;DHT22;6207;49.308;7.336;2022-12-20T07:31:00;5.40;99.90
12289;DHT22;6207;49.308;7.336;2022-12-20T07:33:28;5.40;99.90
12289;DHT22;6207;49.308;7.336;2022-12-20T07:36:03;5.30;99.90
12289;DHT22;6207;49.308;7.336;2022-12-20T07:38:31;5.30;99.90
12289;DHT22;6207;49.308;7.336;2022-12-20T07:40:58;5.30;99.90
12289;DHT22;6207;49.308;7.336;2022-12-20T07:43:25;5.40;99.90
12289;DHT22;6207;49.308;7.336;2022-12-20T07:45:55;5.30;99.90
12289;DHT22;6207;49.308;7.336;2022-12-20T07:48:23;5.70;99.90
12289;DHT22;6207;49.308;7.336;2022-12-20T07:50:57;5.80;99.90
12289;DHT22;6207;49.308;7.336;2022-12-20T07:53:26;5.90;99.90
12289;DHT22;6207;49.308;7.336;2022-12-20T07:55:54;6.40;99.90
12289;DHT22;6207;49.308;7.336;2022-12-20T07:58:22;6.40;97.40
12289;DHT22;6207;49.308;7.336;2022-12-20T08:00:49;6.80;95.60
12289;DHT22;6207;49.308;7.336;2022-12-20T08:03:20;6.70;1.00
12289;DHT22;6207;49.308;7.336;2022-12-20T08:05:51;7.10;1.00
12289;DHT22;6207;49.308;7.336;2022-12-20T08:08:19;7.00;1.00
12289;DHT22;6207;49.308;7.336;2022-12-20T08:10:46;7.20;1.00
12289;DHT22;6207;49.308;7.336;2022-12-20T08:13:12;7.40;1.00
12289;DHT22;6207;49.308;7.336;2022-12-20T08:15:39;7.40;1.00
12289;DHT22;6207;49.308;7.336;2022-12-20T08:18:06;7.30;1.00
12289;DHT22;6207;49.308;7.336;2022-12-20T08:20:33;7.10;1.00
12289;DHT22;6207;49.308;7.336;2022-12-20T08:23:02;7.40;1.00
12289;DHT22;6207;49.308;7.336;2022-12-20T08:25:29;7.80;1.00
12289;DHT22;6207;49.308;7.336;2022-12-20T08:28:02;7.80;1.00
12289;DHT22;6207;49.308;7.336;2022-12-20T08:30:29;8.10;1.00
12289;DHT22;6207;49.308;7.336;2022-12-20T08:32:56;8.40;99.90
12289;DHT22;6207;49.308;7.336;2022-12-20T08:35:23;8.30;99.90
12289;DHT22;6207;49.308;7.336;2022-12-20T08:37:51;8.10;99.90
12289;DHT22;6207;49.308;7.336;2022-12-20T08:40:19;7.90;99.90
12289;DHT22;6207;49.308;7.336;2022-12-20T08:42:46;7.90;99.90
12289;DHT22;6207;49.308;7.336;2022-12-20T08:45:13;7.90;69.70
12289;DHT22;6207;49.308;7.336;2022-12-20T08:47:40;8.10;1.00
12289;DHT22;6207;49.308;7.336;2022-12-20T08:50:07;8.00;1.00
12289;DHT22;6207;49.308;7.336;2022-12-20T08:52:34;7.90;1.00
12289;DHT22;6207;49.308;7.336;2022-12-20T08:55:00;7.90;1.00
12289;DHT22;6207;49.308;7.336;2022-12-20T08:57:30;7.70;1.00
12289;DHT22;6207;49.308;7.336;2022-12-20T08:59:57;7.50;1.00
12289;DHT22;6207;49.308;7.336;2022-12-20T09:02:23;7.50;1.00
12289;DHT22;6207;49.308;7.336;2022-12-20T09:04:50;7.40;1.00
12289;DHT22;6207;49.308;7.336;2022-12-20T09:07:17;7.40;1.00
12289;DHT22;6207;49.308;7.336;2022-12-20T09:09:45;7.30;1.00
12289;DHT22;6207;49.308;7.336;2022-12-20T09:12:12;7.40;1.00
12289;DHT22;6207;49.308;7.336;2022-12-20T09:14:39;7.30;1.00
12289;DHT22;6207;49.308;7.336;2022-12-20T09:17:06;8.00;1.00
12289;DHT22;6207;49.308;7.336;2022-12-20T09:19:32;8.10;1.00
12289;DHT22;6207;49.308;7.336;2022-12-20T09:21:59;8.40;1.00
12289;DHT22;6207;49.308;7.336;2022-12-20T09:24:26;8.80;18.10
12289;DHT22;6207;49.308;7.336;2022-12-20T09:26:53;9.00;99.90
12289;DHT22;6207;49.308;7.336;2022-12-20T09:29:19;9.70;99.90
12289;DHT22;6207;49.308;7.336;2022-12-20T09:31:53;10.30;99.90
12289;DHT22;6207;49.308;7.336;2022-12-20T09:34:20;10.20;99.90
12289;DHT22;6207;49.308;7.336;2022-12-20T09:36:47;10.20;99.90
12289;DHT22;6207;49.308;7.336;2022-12-20T09:39:14;10.20;99.90
12289;DHT22;6207;49.308;7.336;2022-12-20T09:41:41;10.20;99.90
12289;DHT22;6207;49.308;7.336;2022-12-20T09:44:24;9.80;99.90
12289;DHT22;6207;49.308;7.336;2022-12-20T09:47:05;9.90;99.90
12289;DHT22;6207;49.308;7.336;2022-12-20T09:49:39;9.90;99.90
12289;DHT22;6207;49.308;7.336;2022-12-20T09:52:40;10.50;99.90
12289;DHT22;6207;49.308;7.336;2022-12-20T10:00:24;10.60;99.90
12289;DHT22;6207;49.308;7.336;2022-12-20T10:02:51;10.60;99.90
12289;DHT22;6207;49.308;7.336;2022-12-20T10:05:42;10.70;99.90
12289;DHT22;6207;49.308;7.336;2022-12-20T10:08:37;10.50;99.90
12289;DHT22;6207;49.308;7.336;2022-12-20T10:16:50;11.30;99.90
12289;DHT22;6207;49.308;7.336;2022-12-20T10:24:31;11.60;99.90
12289;DHT22;6207;49.308;7.336;2022-12-20T10:27:18;11.60;99.90
12289;DHT22;6207;49.308;7.336;2022-12-20T10:29:48;11.80;99.90
12289;DHT22;6207;49.308;7.336;2022-12-20T10:32:17;12.20;99.90
12289;DHT22;6207;49.308;7.336;2022-12-20T10:35:00;11.90;99.90
12289;DHT22;6207;49.308;7.336;2022-12-20T10:38:03;12.00;99.90
12289;DHT22;6207;49.308;7.336;2022-12-20T10:41:03;11.90;99.90
12289;DHT22;6207;49.308;7.336;2022-12-20T10:43:58;11.80;99.90
12289;DHT22;6207;49.308;7.336;2022-12-20T10:46:40;11.80;99.90
12289;DHT22;6207;49.308;7.336;2022-12-20T10:49:21;11.90;99.90
12289;DHT22;6207;49.308;7.336;2022-12-20T10:54:40;11.80;99.90
12289;DHT22;6207;49.308;7.336;2022-12-20T10:57:27;12.00;99.90
12289;DHT22;6207;49.308;7.336;2022-12-20T11:00:04;11.80;99.90
12289;DHT22;6207;49.308;7.336;2022-12-20T11:02:33;11.80;99.90
12289;DHT22;6207;49.308;7.336;2022-12-20T11:10:44;11.90;99.90
12289;DHT22;6207;49.308;7.336;2022-12-20T11:13:23;11.90;99.90
12289;DHT22;6207;49.308;7.336;2022-12-20T11:15:53;12.00;99.90
12289;DHT22;6207;49.308;7.336;2022-12-20T11:27:19;12.10;99.90
12289;DHT22;6207;49.308;7.336;2022-12-20T11:30:05;11.90;99.90
12289;DHT22;6207;49.308;7.336;2022-12-20T11:32:41;11.90;99.90
12289;DHT22;6207;49.308;7.336;2022-12-20T11:38:16;12.00;99.90
12289;DHT22;6207;49.308;7.336;2022-12-20T11:41:23;12.10;99.90
12289;DHT22;6207;49.308;7.336;2022-12-20T11:47:30;12.20;99.90
12289;DHT22;6207;49.308;7.336;2022-12-20T11:53:01;12.30;99.90
12289;DHT22;6207;49.308;7.336;2022-12-20T11:55:36;12.50;99.90
12289;DHT22;6207;49.308;7.336;2022-12-20T12:01:07;12.70;99.90
12289;DHT22;6207;49.308;7.336;2022-12-20T12:03:42;12.90;99.90
12289;DHT22;6207;49.308;7.336;2022-12-20T12:06:19;12.80;99.90
12289;DHT22;6207;49.308;7.336;2022-12-20T12:09:06;12.90;99.90
12289;DHT22;6207;49.308;7.336;2022-12-20T12:11:41;12.60;99.90
12289;DHT22;6207;49.308;7.336;2022-12-20T12:17:29;12.40;99.90
12289;DHT22;6207;49.308;7.336;2022-12-20T12:20:09;12.50;99.90
12289;DHT22;6207;49.308;7.336;2022-12-20T12:22:42;12.50;99.90
12289;DHT22;6207;49.308;7.336;2022-12-20T12:25:13;12.40;99.90
12289;DHT22;6207;49.308;7.336;2022-12-20T12:27:41;12.40;99.90
12289;DHT22;6207;49.308;7.336;2022-12-20T12:30:15;12.60;99.90
12289;DHT22;6207;49.308;7.336;2022-12-20T14:07:04;12.90;99.90
12289;DHT22;6207;49.308;7.336;2022-12-20T14:09:33;12.80;99.90
12289;DHT22;6207;49.308;7.336;2022-12-20T14:12:12;12.80;99.90
12289;DHT22;6207;49.308;7.336;2022-12-20T14:14:48;13.00;99.90
12289;DHT22;6207;49.308;7.336;2022-12-20T14:17:16;12.90;99.90
12289;DHT22;6207;49.308;7.336;2022-12-20T14:19:43;12.80;99.90
12289;DHT22;6207;49.308;7.336;2022-12-20T14:22:10;12.90;99.90
12289;DHT22;6207;49.308;7.336;2022-12-20T14:24:41;12.90;99.90
12289;DHT22;6207;49.308;7.336;2022-12-20T14:27:12;12.90;99.90
12289;DHT22;6207;49.308;7.336;2022-12-20T14:29:39;12.80;99.90
12289;DHT22;6207;49.308;7.336;2022-12-20T14:32:17;12.70;99.90
12289;DHT22;6207;49.308;7.336;2022-12-20T14:34:45;12.50;99.90
12289;DHT22;6207;49.308;7.336;2022-12-20T14:37:32;12.70;99.90
12289;DHT22;6207;49.308;7.336;2022-12-20T14:40:17;12.60;99.90
12289;DHT22;6207;49.308;7.336;2022-12-20T14:42:45;12.60;99.90
12289;DHT22;6207;49.308;7.336;2022-12-20T14:47:58;12.60;99.90
12289;DHT22;6207;49.308;7.336;2022-12-20T14:50:37;12.80;99.90
12289;DHT22;6207;49.308;7.336;2022-12-20T14:53:22;12.60;99.90
12289;DHT22;6207;49.308;7.336;2022-12-20T14:55:50;12.40;25.60
12289;DHT22;6207;49.308;7.336;2022-12-20T15:01:03;12.80;99.90
12289;DHT22;6207;49.308;7.336;2022-12-20T15:03:54;12.90;99.90
12289;DHT22;6207;49.308;7.336;2022-12-20T15:06:36;13.10;99.90
12289;DHT22;6207;49.308;7.336;2022-12-20T15:09:05;12.90;99.90
12289;DHT22;6207;49.308;7.336;2022-12-20T15:11:33;12.90;99.90
12289;DHT22;6207;49.308;7.336;2022-12-20T15:14:01;12.80;99.90
12289;DHT22;6207;49.308;7.336;2022-12-20T15:16:30;12.80;99.90
12289;DHT22;6207;49.308;7.336;2022-12-20T15:19:01;12.90;99.90
12289;DHT22;6207;49.308;7.336;2022-12-20T15:21:32;12.80;43.50
12289;DHT22;6207;49.308;7.336;2022-12-20T15:24:00;12.60;1.00
12289;DHT22;6207;49.308;7.336;2022-12-20T15:26:29;12.60;1.00
12289;DHT22;6207;49.308;7.336;2022-12-20T15:28:56;12.80;1.00
12289;DHT22;6207;49.308;7.336;2022-12-20T15:31:24;12.70;1.00
12289;DHT22;6207;49.308;7.336;2022-12-20T15:34:02;12.70;1.00
12289;DHT22;6207;49.308;7.336;2022-12-20T15:36:29;12.70;1.00
12289;DHT22;6207;49.308;7.336;2022-12-20T15:38:57;12.70;1.00
12289;DHT22;6207;49.308;7.336;2022-12-20T15:41:43;12.60;99.90
12289;DHT22;6207;49.308;7.336;2022-12-20T15:44:23;12.80;99.90
12289;DHT22;6207;49.308;7.336;2022-12-20T15:46:50;12.90;1.00
12289;DHT22;6207;49.308;7.336;2022-12-20T15:49:20;12.60;99.90
12289;DHT22;6207;49.308;7.336;2022-12-20T15:51:48;12.70;99.90
12289;DHT22;6207;49.308;7.336;2022-12-20T15:54:30;13.00;99.90
12289;DHT22;6207;49.308;7.336;2022-12-20T15:57:00;12.70;99.90
12289;DHT22;6207;49.308;7.336;2022-12-20T15:59:33;12.70;66.40
12289;DHT22;6207;49.308;7.336;2022-12-20T16:02:21;12.80;26.60
12289;DHT22;6207;49.308;7.336;2022-12-20T16:04:48;12.60;1.00
12289;DHT22;6207;49.308;7.336;2022-12-20T16:07:16;12.80;1.00
12289;DHT22;6207;49.308;7.336;2022-12-20T16:09:43;13.00;99.90
12289;DHT22;6207;49.308;7.336;2022-12-20T16:12:33;12.80;1.00
12289;DHT22;6207;49.308;7.336;2022-12-20T16:15:01;12.90;1.00
12289;DHT22;6207;49.308;7.336;2022-12-20T16:17:27;12.80;1.00
12289;DHT22;6207;49.308;7.336;2022-12-20T16:19:54;12.70;1.00
12289;DHT22;6207;49.308;7.336;2022-12-20T16:22:22;12.60;1.00
12289;DHT22;6207;49.308;7.336;2022-12-20T16:24:49;12.50;1.00
12289;DHT22;6207;49.308;7.336;2022-12-20T16:27:17;12.40;1.00
12289;DHT22;6207;49.308;7.336;2022-12-20T16:29:44;12.70;1.00
12289;DHT22;6207;49.308;7.336;2022-12-20T16:32:14;12.80;1.00
12289;DHT22;6207;49.308;7.336;2022-12-20T16:34:41;12.90;1.00
12289;DHT22;6207;49.308;7.336;2022-12-20T16:37:08;12.80;1.00
12289;DHT22;6207;49.308;7.336;2022-12-20T16:39:35;12.80;1.00
12289;DHT22;6207;49.308;7.336;2022-12-20T16:42:01;12.60;1.00
12289;DHT22;6207;49.308;7.336;2022-12-20T16:44:28;12.50;1.00
12289;DHT22;6207;49.308;7.336;2022-12-20T16:46:55;12.50;1.00
12289;DHT22;6207;49.308;7.336;2022-12-20T16:49:22;12.40;99.90
12289;DHT22;6207;49.308;7.336;2022-12-20T16:51:50;12.40;99.90
12289;DHT22;6207;49.308;7.336;2022-12-20T16:54:19;12.80;99.90
12289;DHT22;6207;49.308;7.336;2022-12-20T16:56:51;12.40;99.90
12289;DHT22;6207;49.308;7.336;2022-12-20T16:59:24;12.30;99.90
12289;DHT22;6207;49.308;7.336;2022-12-20T17:01:53;12.30;99.90
12289;DHT22;6207;49.308;7.336;2022-12-20T17:04:20;12.60;99.90
12289;DHT22;6207;49.308;7.336;2022-12-20T17:06:48;12.60;99.90
12289;DHT22;6207;49.308;7.336;2022-12-20T17:09:15;12.60;99.90
12289;DHT22;6207;49.308;7.336;2022-12-20T17:11:42;12.40;99.90
12289;DHT22;6207;49.308;7.336;2022-12-20T17:14:11;12.60;99.90
12289;DHT22;6207;49.308;7.336;2022-12-20T17:16:39;12.70;99.90
12289;DHT22;6207;49.308;7.336;2022-12-20T17:19:06;12.50;99.90
12289;DHT22;6207;49.308;7.336;2022-12-20T17:21:37;12.40;99.90
12289;DHT22;6207;49.308;7.336;2022-12-20T17:24:23;12.40;99.90
12289;DHT22;6207;49.308;7.336;2022-12-20T17:26:50;12.50;99.90
12289;DHT22;6207;49.308;7.336;2022-12-20T17:29:17;12.60;99.90
12289;DHT22;6207;49.308;7.336;2022-12-20T17:31:45;12.60;99.90
12289;DHT22;6207;49.308;7.336;2022-12-20T17:36:46;12.50;99.90
12289;DHT22;6207;49.308;7.336;2022-12-20T17:39:13;12.40;99.90
12289;DHT22;6207;49.308;7.336;2022-12-20T17:41:42;12.60;99.90
12289;DHT22;6207;49.308;7.336;2022-12-20T17:44:19;12.50;99.90
12289;DHT22;6207;49.308;7.336;2022-12-20T17:46:47;12.50;99.90
12289;DHT22;6207;49.308;7.336;2022-12-20T17:49:14;12.60;99.90
12289;DHT22;6207;49.308;7.336;2022-12-20T17:51:41;12.50;99.90
12289;DHT22;6207;49.308;7.336;2022-12-20T17:54:19;12.40;87.50
12289;DHT22;6207;49.308;7.336;2022-12-20T17:56:46;12.30;69.00
12289;DHT22;6207;49.308;7.336;2022-12-20T17:59:13;12.50;70.80
12289;DHT22;6207;49.308;7.336;2022-12-20T18:01:41;12.30;48.70
12289;DHT22;6207;49.308;7.336;2022-12-20T18:04:11;12.60;29.70
12289;DHT22;6207;49.308;7.336;2022-12-20T18:06:40;12.60;18.20
12289;DHT22;6207;49.308;7.336;2022-12-20T18:09:25;12.60;33.00
12289;DHT22;6207;49.308;7.336;2022-12-20T18:11:52;12.50;83.20
12289;DHT22;6207;49.308;7.336;2022-12-20T18:14:19;12.60;34.20
12289;DHT22;6207;49.308;7.336;2022-12-20T18:16:46;12.70;23.40
12289;DHT22;6207;49.308;7.336;2022-12-20T18:19:17;12.30;73.10
12289;DHT22;6207;49.308;7.336;2022-12-20T18:21:44;12.10;99.90
12289;DHT22;6207;49.308;7.336;2022-12-20T18:24:14;11.90;99.90
12289;DHT22;6207;49.308;7.336;2022-12-20T18:26:42;11.90;99.90
12289;DHT22;6207;49.308;7.336;2022-12-20T18:29:10;11.90;99.90
12289;DHT22;6207;49.308;7.336;2022-12-20T18:31:37;11.80;99.90
12289;DHT22;6207;49.308;7.336;2022-12-20T18:34:04;11.60;1.00
12289;DHT22;6207;49.308;7.336;2022-12-20T18:36:33;11.60;1.00
12289;DHT22;6207;49.308;7.336;2022-12-20T18:39:02;11.90;99.90
12289;DHT22;6207;49.308;7.336;2022-12-20T18:41:30;11.30;1.00
12289;DHT22;6207;49.308;7.336;2022-12-20T18:44:02;11.40;1.00
12289;DHT22;6207;49.308;7.336;2022-12-20T18:46:29;11.30;1.00
12289;DHT22;6207;49.308;7.336;2022-12-20T18:48:57;11.10;1.00
12289;DHT22;6207;49.308;7.336;2022-12-20T18:51:27;11.00;1.00
12289;DHT22;6207;49.308;7.336;2022-12-20T18:53:56;11.20;1.00
12289;DHT22;6207;49.308;7.336;2022-12-20T18:56:28;11.00;1.00
12289;DHT22;6207;49.308;7.336;2022-12-20T18:58:57;11.00;1.00
12289;DHT22;6207;49.308;7.336;2022-12-20T19:01:34;10.90;90.90
12289;DHT22;6207;49.308;7.336;2022-12-20T19:04:03;10.60;99.90
12289;DHT22;6207;49.308;7.336;2022-12-20T19:06:30;10.80;99.90
12289;DHT22;6207;49.308;7.336;2022-12-20T19:08:59;10.80;99.90
12289;DHT22;6207;49.308;7.336;2022-12-20T19:11:26;10.60;99.90